createdAt,value
2024-02-22T00:00:27.801Z,6.30
2024-02-22T00:03:15.325Z,6.30
2024-02-22T00:06:03.674Z,6.30
2024-02-22T00:08:50.937Z,6.40
2024-02-22T00:11:38.452Z,6.40
2024-02-22T00:14:26.005Z,6.40
2024-02-22T00:17:13.652Z,6.40
2024-02-22T00:20:02.683Z,6.40
2024-02-22T00:22:50.278Z,6.40
2024-02-22T00:25:38.234Z,6.40
2024-02-22T00:28:26.117Z,6.40
2024-02-22T00:31:13.686Z,6.40
2024-02-22T00:34:00.979Z,6.40
2024-02-22T00:36:57.498Z,6.40
2024-02-22T00:39:47.360Z,6.50
2024-02-22T00:42:35.201Z,6.40
2024-02-22T00:45:22.477Z,6.40
2024-02-22T00:48:10.209Z,6.40
2024-02-22T00:50:57.682Z,6.30
2024-02-22T00:53:45.520Z,6.40
2024-02-22T00:56:32.994Z,6.40
2024-02-22T00:59:20.443Z,6.50
2024-02-22T01:02:08.616Z,6.50
2024-02-22T01:04:56.155Z,6.50
2024-02-22T01:07:43.831Z,6.60
2024-02-22T01:10:31.499Z,6.60
2024-02-22T01:13:19.032Z,6.60
2024-02-22T01:16:07.244Z,6.60
2024-02-22T01:18:54.782Z,6.50
2024-02-22T01:21:42.546Z,6.60
2024-02-22T01:24:30.056Z,6.60
2024-02-22T01:27:17.605Z,6.50
2024-02-22T01:30:05.872Z,6.50
2024-02-22T01:32:53.727Z,6.60
2024-02-22T01:35:41.015Z,6.60
2024-02-22T01:38:28.458Z,6.50
2024-02-22T01:41:17.026Z,6.50
2024-02-22T01:44:04.849Z,6.50
2024-02-22T01:46:52.518Z,6.60
2024-02-22T01:49:40.299Z,6.50
2024-02-22T01:52:29.800Z,6.50
2024-02-22T01:55:19.153Z,6.50
2024-02-22T01:58:06.596Z,6.50
2024-02-22T02:00:54.226Z,6.50
2024-02-22T02:03:41.532Z,6.50
2024-02-22T02:06:29.147Z,6.50
2024-02-22T02:09:17.754Z,6.50
2024-02-22T02:12:06.125Z,6.50
2024-02-22T02:14:55.517Z,6.50
2024-02-22T02:17:44.914Z,6.50
2024-02-22T02:20:40.404Z,6.50
2024-02-22T02:23:58.642Z,6.50
2024-02-22T02:26:46.527Z,6.50
2024-02-22T02:29:34.118Z,6.40
2024-02-22T02:32:21.557Z,6.30
2024-02-22T02:35:09.412Z,6.30
2024-02-22T02:37:59.640Z,6.30
2024-02-22T02:40:47.289Z,6.20
2024-02-22T02:43:34.690Z,6.20
2024-02-22T02:46:22.082Z,6.20
2024-02-22T02:49:09.459Z,6.20
2024-02-22T02:51:56.812Z,6.20
2024-02-22T02:54:44.397Z,6.10
2024-02-22T02:57:32.109Z,6.10
2024-02-22T03:00:19.770Z,6.00
2024-02-22T03:03:07.410Z,5.90
2024-02-22T03:05:55.109Z,5.90
2024-02-22T03:08:42.652Z,5.80
2024-02-22T03:11:30.150Z,5.80
2024-02-22T03:14:17.643Z,5.70
2024-02-22T03:17:05.029Z,5.70
2024-02-22T03:19:53.493Z,5.60
2024-02-22T03:22:41.939Z,5.50
2024-02-22T03:25:29.590Z,5.60
2024-02-22T03:28:17.520Z,5.60
2024-02-22T03:31:05.617Z,5.50
2024-02-22T03:33:52.837Z,5.50
2024-02-22T03:36:43.120Z,5.50
2024-02-22T03:39:30.677Z,5.50
2024-02-22T03:42:18.723Z,5.40
2024-02-22T03:45:06.790Z,5.50
2024-02-22T03:47:54.397Z,5.40
2024-02-22T03:50:44.844Z,5.30
2024-02-22T03:53:32.506Z,5.30
2024-02-22T03:56:20.905Z,5.30
2024-02-22T03:59:08.591Z,5.20
2024-02-22T04:01:56.136Z,5.20
2024-02-22T04:04:54.861Z,5.20
2024-02-22T04:07:43.837Z,5.20
2024-02-22T04:10:31.207Z,5.20
2024-02-22T04:13:19.154Z,5.10
2024-02-22T04:16:07.070Z,5.10
2024-02-22T04:18:54.794Z,5.10
2024-02-22T04:21:45.552Z,5.10
2024-02-22T04:24:32.861Z,5.10
2024-02-22T04:27:20.191Z,5.10
2024-02-22T04:30:08.425Z,5.10
2024-02-22T04:32:55.847Z,5.00
2024-02-22T04:35:46.874Z,5.00
2024-02-22T04:38:35.677Z,5.00
2024-02-22T04:41:23.415Z,5.00
2024-02-22T04:44:11.197Z,5.00
2024-02-22T04:46:58.521Z,5.00
2024-02-22T04:49:45.861Z,5.00
2024-02-22T04:52:33.349Z,5.00
2024-02-22T04:55:21.274Z,4.90
2024-02-22T04:58:08.701Z,4.90
2024-02-22T05:00:56.878Z,4.90
2024-02-22T05:03:44.761Z,4.80
2024-02-22T05:06:32.384Z,4.80
2024-02-22T05:09:20.537Z,4.70
2024-02-22T05:12:08.927Z,4.70
2024-02-22T05:14:56.694Z,4.80
2024-02-22T05:17:44.103Z,4.70
2024-02-22T05:20:31.653Z,4.70
2024-02-22T05:23:19.348Z,4.80
2024-02-22T05:26:06.849Z,4.80
2024-02-22T05:28:54.810Z,4.80
2024-02-22T05:31:42.610Z,4.90
2024-02-22T05:34:29.979Z,4.80
2024-02-22T05:37:17.510Z,4.80
2024-02-22T05:40:09.547Z,4.70
2024-02-22T05:42:57.303Z,4.80
2024-02-22T05:45:48.436Z,4.80
2024-02-22T05:48:36.169Z,4.80
2024-02-22T05:51:23.562Z,4.80
2024-02-22T05:54:11.173Z,4.80
2024-02-22T05:56:58.472Z,4.80
2024-02-22T05:59:46.129Z,4.80
2024-02-22T06:02:33.627Z,4.90
2024-02-22T06:05:21.065Z,4.90
2024-02-22T06:08:08.878Z,4.90
2024-02-22T06:10:56.578Z,4.90
2024-02-22T06:13:44.502Z,4.90
2024-02-22T06:16:31.951Z,5.00
2024-02-22T06:19:19.486Z,4.90
2024-02-22T06:22:06.932Z,4.90
2024-02-22T06:24:54.337Z,4.90
2024-02-22T06:27:46.707Z,4.90
2024-02-22T06:30:34.031Z,4.90
2024-02-22T06:33:23.230Z,4.90
2024-02-22T06:36:11.330Z,5.00
2024-02-22T06:38:58.844Z,5.00
2024-02-22T06:41:46.578Z,5.00
2024-02-22T06:44:33.858Z,5.00
2024-02-22T06:47:21.438Z,5.10
2024-02-22T06:50:09.100Z,5.10
2024-02-22T06:52:56.611Z,5.20
2024-02-22T06:55:44.816Z,5.30
2024-02-22T06:58:32.234Z,5.30
2024-02-22T07:01:19.892Z,5.40
2024-02-22T07:04:09.869Z,5.50
2024-02-22T07:06:58.494Z,5.50
2024-02-22T07:09:45.841Z,5.60
2024-02-22T07:12:33.830Z,5.60
2024-02-22T07:15:21.575Z,5.70
2024-02-22T07:18:09.332Z,5.80
2024-02-22T07:20:59.120Z,5.80
2024-02-22T07:23:47.171Z,6.00
2024-02-22T07:26:34.944Z,6.00
2024-02-22T07:29:22.934Z,6.00
2024-02-22T07:32:10.282Z,6.10
2024-02-22T07:34:57.793Z,6.10
2024-02-22T07:37:45.079Z,6.20
2024-02-22T07:40:33.133Z,6.30
2024-02-22T07:43:20.622Z,6.30
2024-02-22T07:46:07.974Z,6.50
2024-02-22T07:48:57.192Z,6.60
2024-02-22T07:51:53.710Z,6.60
2024-02-22T07:54:48.858Z,6.60
2024-02-22T07:57:37.067Z,6.70
2024-02-22T08:00:25.114Z,6.80
2024-02-22T08:03:13.903Z,6.80
2024-02-22T08:06:01.486Z,6.90
2024-02-22T08:08:49.486Z,7.00
2024-02-22T08:11:37.077Z,7.20
2024-02-22T08:14:25.050Z,7.20
2024-02-22T08:17:17.793Z,7.40
2024-02-22T08:20:08.269Z,7.60
2024-02-22T08:22:56.448Z,7.90
2024-02-22T08:25:44.470Z,8.00
2024-02-22T08:28:34.142Z,8.10
2024-02-22T08:31:24.419Z,8.50
2024-02-22T08:34:14.747Z,8.80
2024-02-22T08:37:02.182Z,8.80
2024-02-22T08:39:50.522Z,8.90
2024-02-22T08:42:38.423Z,8.90
2024-02-22T08:45:26.394Z,9.20
2024-02-22T08:48:16.272Z,9.20
2024-02-22T08:51:04.656Z,9.20
2024-02-22T08:53:52.238Z,9.10
2024-02-22T08:56:39.676Z,9.10
2024-02-22T08:59:26.969Z,9.30
2024-02-22T09:02:15.333Z,9.30
2024-02-22T09:05:03.498Z,9.50
2024-02-22T09:07:52.714Z,9.60
2024-02-22T09:10:40.575Z,9.70
2024-02-22T09:13:28.049Z,9.70
2024-02-22T09:16:15.683Z,10.00
2024-02-22T09:19:03.415Z,10.20
2024-02-22T09:21:51.704Z,10.60
2024-02-22T09:24:43.340Z,10.90
2024-02-22T09:27:31.961Z,11.10
2024-02-22T09:30:19.364Z,10.80
2024-02-22T09:33:09.132Z,10.80
2024-02-22T09:35:57.450Z,10.80
2024-02-22T09:38:45.111Z,10.80
2024-02-22T09:41:32.790Z,10.70
2024-02-22T09:44:21.060Z,10.50
2024-02-22T09:47:09.835Z,10.50
2024-02-22T09:49:58.509Z,10.40
2024-02-22T09:52:47.479Z,10.30
2024-02-22T09:55:36.680Z,10.30
2024-02-22T09:58:25.042Z,10.30
2024-02-22T10:01:12.377Z,10.30
2024-02-22T10:04:13.393Z,10.40
2024-02-22T10:07:01.930Z,10.40
2024-02-22T10:09:53.969Z,10.50
2024-02-22T10:12:46.102Z,10.20
2024-02-22T10:15:35.031Z,10.20
2024-02-22T10:18:26.807Z,10.20
2024-02-22T10:21:18.834Z,10.10
2024-02-22T10:24:07.255Z,10.10
2024-02-22T10:27:07.460Z,10.10
2024-02-22T10:29:57.491Z,10.00
2024-02-22T10:32:47.162Z,9.90
2024-02-22T10:35:36.225Z,9.90
2024-02-22T10:38:23.695Z,10.00
2024-02-22T10:41:12.359Z,10.00
2024-02-22T10:44:03.429Z,10.00
2024-02-22T10:46:52.634Z,10.00
2024-02-22T10:49:40.577Z,10.00
2024-02-22T10:52:28.825Z,10.10
2024-02-22T10:55:17.922Z,10.10
2024-02-22T10:58:07.179Z,10.10
2024-02-22T11:00:56.496Z,10.10
2024-02-22T11:03:45.571Z,10.10
2024-02-22T11:06:40.619Z,10.10
2024-02-22T11:09:28.091Z,10.20
2024-02-22T11:12:17.404Z,10.10
2024-02-22T11:15:08.402Z,10.10
2024-02-22T11:17:58.986Z,10.20
2024-02-22T11:20:46.984Z,10.20
2024-02-22T11:23:35.693Z,10.10
2024-02-22T11:26:23.562Z,10.00
2024-02-22T11:29:11.254Z,10.10
2024-02-22T11:32:06.269Z,10.10
2024-02-22T11:34:57.461Z,10.10
2024-02-22T11:37:48.689Z,10.00
2024-02-22T11:40:37.026Z,10.10
2024-02-22T11:43:27.306Z,10.10
2024-02-22T11:46:14.673Z,10.00
2024-02-22T11:49:03.046Z,10.00
2024-02-22T11:51:51.220Z,10.00
2024-02-22T11:54:39.542Z,10.10
2024-02-22T11:57:27.127Z,10.20
2024-02-22T12:00:15.298Z,10.20
2024-02-22T12:03:03.991Z,10.30
2024-02-22T12:05:52.204Z,10.30
2024-02-22T12:08:40.008Z,10.20
2024-02-22T12:11:27.764Z,10.20
2024-02-22T12:14:15.586Z,10.20
2024-02-22T12:17:03.301Z,10.30
2024-02-22T12:19:54.366Z,10.20
2024-02-22T12:22:46.536Z,10.30
2024-02-22T12:25:40.696Z,10.30
2024-02-22T12:28:28.751Z,10.40
2024-02-22T12:31:19.981Z,10.50
2024-02-22T12:34:08.074Z,10.60
2024-02-22T12:36:55.505Z,10.50
2024-02-22T12:39:43.079Z,10.60
2024-02-22T12:42:31.414Z,10.60
2024-02-22T12:45:21.107Z,10.60
2024-02-22T12:48:13.832Z,10.60
2024-02-22T12:51:01.423Z,10.60
2024-02-22T12:53:49.830Z,10.50
2024-02-22T12:56:37.524Z,10.50
2024-02-22T12:59:30.213Z,10.50
2024-02-22T13:02:17.806Z,10.40
2024-02-22T13:05:06.601Z,10.20
2024-02-22T13:07:57.527Z,10.10
2024-02-22T13:10:45.755Z,9.90
2024-02-22T13:13:34.224Z,9.80
2024-02-22T13:16:24.384Z,9.70
2024-02-22T13:19:12.557Z,9.70
2024-02-22T13:22:00.810Z,9.60
2024-02-22T13:24:48.702Z,9.60
2024-02-22T13:27:36.994Z,9.50
2024-02-22T13:30:25.644Z,9.60
2024-02-22T13:33:16.579Z,9.60
2024-02-22T13:36:04.672Z,9.70
2024-02-22T13:38:52.334Z,9.70
2024-02-22T13:41:40.102Z,9.70
2024-02-22T13:44:31.009Z,9.70
2024-02-22T13:47:19.026Z,9.80
2024-02-22T13:50:07.328Z,9.80
2024-02-22T13:52:55.025Z,9.80
2024-02-22T13:55:42.411Z,9.80
2024-02-22T13:58:33.460Z,9.80
2024-02-22T14:01:21.125Z,9.90
2024-02-22T14:04:08.694Z,9.90
2024-02-22T14:06:57.614Z,9.90
2024-02-22T14:09:45.876Z,9.90
2024-02-22T14:12:34.221Z,9.90
2024-02-22T14:15:21.465Z,9.80
2024-02-22T14:18:09.081Z,9.80
2024-02-22T14:20:56.895Z,9.80
2024-02-22T14:23:44.672Z,9.70
2024-02-22T14:26:32.247Z,9.80
2024-02-22T14:29:20.774Z,9.70
2024-02-22T14:32:11.408Z,9.70
2024-02-22T14:34:59.655Z,9.70
2024-02-22T14:37:46.961Z,9.70
2024-02-22T14:40:34.243Z,9.70
2024-02-22T14:43:23.219Z,9.60
2024-02-22T14:46:10.932Z,9.60
2024-02-22T14:48:58.317Z,9.60
2024-02-22T14:51:45.559Z,9.70
2024-02-22T14:54:33.035Z,9.70
2024-02-22T14:57:20.309Z,9.70
2024-02-22T15:00:12.344Z,9.70
2024-02-22T15:02:59.501Z,9.60
2024-02-22T15:05:46.897Z,9.60
2024-02-22T15:08:37.207Z,9.60
2024-02-22T15:11:25.231Z,9.50
2024-02-22T15:14:13.241Z,9.50
2024-02-22T15:17:01.724Z,9.50
2024-02-22T15:19:53.315Z,9.50
2024-02-22T15:22:41.378Z,9.50
2024-02-22T15:25:28.845Z,9.50
2024-02-22T15:28:16.922Z,9.40
2024-02-22T15:31:04.354Z,9.40
2024-02-22T15:33:58.012Z,9.40
2024-02-22T15:36:48.572Z,9.40
2024-02-22T15:39:40.504Z,9.40
2024-02-22T15:42:27.968Z,9.40
2024-02-22T15:45:16.465Z,9.40
2024-02-22T15:48:04.273Z,9.40
2024-02-22T15:50:52.207Z,9.30
2024-02-22T15:53:39.430Z,9.30
2024-02-22T15:56:29.119Z,9.30
2024-02-22T15:59:16.604Z,9.30
2024-02-22T16:02:04.292Z,9.30
2024-02-22T16:04:53.578Z,9.30
2024-02-22T16:07:42.764Z,9.30
2024-02-22T16:10:30.366Z,9.20
2024-02-22T16:13:17.769Z,9.20
2024-02-22T16:16:05.823Z,9.20
2024-02-22T16:18:57.724Z,9.20
2024-02-22T16:21:45.723Z,9.20
2024-02-22T16:24:35.221Z,9.10
2024-02-22T16:27:23.105Z,9.10
2024-02-22T16:30:11.146Z,9.00
2024-02-22T16:32:59.285Z,9.00
2024-02-22T16:35:46.982Z,9.00
2024-02-22T16:38:38.314Z,9.00
2024-02-22T16:41:32.163Z,9.00
2024-02-22T16:44:20.274Z,9.00
2024-02-22T16:47:15.653Z,9.00
2024-02-22T16:50:03.487Z,9.00
2024-02-22T16:52:51.175Z,9.00
2024-02-22T16:55:38.631Z,9.00
2024-02-22T16:58:26.063Z,9.00
2024-02-22T17:01:13.609Z,9.00
2024-02-22T17:04:01.363Z,9.00
2024-02-22T17:06:48.873Z,8.90
2024-02-22T17:09:36.382Z,9.00
2024-02-22T17:12:23.788Z,9.00
2024-02-22T17:15:11.476Z,9.00
2024-02-22T17:17:59.895Z,9.00
2024-02-22T17:20:47.563Z,9.00
2024-02-22T17:23:34.971Z,9.00
2024-02-22T17:26:22.383Z,9.00
2024-02-22T17:29:09.765Z,9.00
2024-02-22T17:31:57.222Z,9.00
2024-02-22T17:34:45.670Z,8.90
2024-02-22T17:37:33.026Z,9.00
2024-02-22T17:40:20.390Z,9.00
2024-02-22T17:43:07.815Z,8.90
2024-02-22T17:45:55.637Z,8.90
2024-02-22T17:48:43.660Z,8.90
2024-02-22T17:51:36.585Z,8.90
2024-02-22T17:54:28.363Z,8.90
2024-02-22T17:57:16.494Z,8.90
2024-02-22T18:00:06.684Z,8.90
2024-02-22T18:03:03.339Z,8.90
2024-02-22T18:05:52.368Z,8.80
2024-02-22T18:08:41.113Z,8.90
2024-02-22T18:11:29.427Z,8.90
2024-02-22T18:14:17.312Z,8.90
2024-02-22T18:17:06.274Z,8.80
2024-02-22T18:19:54.009Z,8.90
2024-02-22T18:22:41.389Z,8.80
2024-02-22T18:25:29.351Z,8.80
2024-02-22T18:28:16.642Z,8.80
2024-02-22T18:31:05.163Z,8.80
2024-02-22T18:33:52.791Z,8.70
2024-02-22T18:36:40.348Z,8.80
2024-02-22T18:39:27.936Z,8.70
2024-02-22T18:42:15.644Z,8.80
2024-02-22T18:45:04.166Z,8.80
2024-02-22T18:47:53.803Z,8.70
2024-02-22T18:50:43.949Z,8.80
2024-02-22T18:53:31.627Z,8.80
2024-02-22T18:56:19.005Z,8.80
2024-02-22T18:59:06.801Z,8.70
2024-02-22T19:01:54.185Z,8.70
2024-02-22T19:04:42.907Z,8.70
2024-02-22T19:07:31.789Z,8.70
2024-02-22T19:10:19.697Z,8.80
2024-02-22T19:13:08.278Z,8.80
2024-02-22T19:15:56.276Z,8.80
2024-02-22T19:18:43.660Z,8.80
2024-02-22T19:21:33.451Z,8.80
2024-02-22T19:24:21.282Z,8.80
2024-02-22T19:27:08.816Z,8.80
2024-02-22T19:29:56.478Z,8.80
2024-02-22T19:32:45.216Z,8.90
2024-02-22T19:35:32.779Z,8.80
2024-02-22T19:38:22.092Z,8.90
2024-02-22T19:41:09.690Z,8.90
2024-02-22T19:43:57.293Z,8.80
2024-02-22T19:46:45.167Z,8.80
2024-02-22T19:49:34.842Z,8.80
2024-02-22T19:52:22.736Z,8.70
2024-02-22T19:55:10.813Z,8.70
2024-02-22T19:58:01.891Z,8.70
2024-02-22T20:00:49.911Z,8.70
2024-02-22T20:03:38.702Z,8.70
2024-02-22T20:06:27.277Z,8.70
2024-02-22T20:09:15.311Z,8.60
2024-02-22T20:12:07.437Z,8.60
2024-02-22T20:14:56.014Z,8.70
2024-02-22T20:17:44.878Z,8.60
2024-02-22T20:20:33.133Z,8.60
2024-02-22T20:23:22.834Z,8.60
2024-02-22T20:26:10.735Z,8.60
2024-02-22T20:28:59.197Z,8.60
2024-02-22T20:31:50.945Z,8.60
2024-02-22T20:34:38.941Z,8.60
2024-02-22T20:37:26.737Z,8.60
2024-02-22T20:40:15.079Z,8.60
2024-02-22T20:43:03.308Z,8.70
2024-02-22T20:45:57.846Z,8.70
2024-02-22T20:48:46.578Z,8.70
2024-02-22T20:51:34.123Z,8.60
2024-02-22T20:54:22.977Z,8.70
2024-02-22T20:57:10.718Z,8.70
2024-02-22T20:59:58.197Z,8.60
2024-02-22T21:02:45.747Z,8.70
2024-02-22T21:05:35.967Z,8.70
2024-02-22T21:08:23.923Z,8.70
2024-02-22T21:11:11.699Z,8.70
2024-02-22T21:14:00.422Z,8.70
2024-02-22T21:16:48.260Z,8.70
2024-02-22T21:19:38.155Z,8.70
2024-02-22T21:22:29.482Z,8.70
2024-02-22T21:25:17.657Z,8.70
2024-02-22T21:28:05.763Z,8.70
2024-02-22T21:30:53.273Z,8.70
2024-02-22T21:33:41.921Z,8.70
2024-02-22T21:36:29.736Z,8.70
2024-02-22T21:39:17.533Z,8.70
2024-02-22T21:42:08.298Z,8.70
2024-02-22T21:44:55.662Z,8.70
2024-02-22T21:47:43.605Z,8.70
2024-02-22T21:50:31.262Z,8.70
2024-02-22T21:53:18.811Z,8.70
2024-02-22T21:56:07.555Z,8.70
2024-02-22T21:58:54.988Z,8.70
2024-02-22T22:01:42.689Z,8.70
2024-02-22T22:04:30.219Z,8.70
2024-02-22T22:07:17.509Z,8.70
2024-02-22T22:10:05.474Z,8.70
2024-02-22T22:12:52.804Z,8.70
2024-02-22T22:15:40.456Z,8.70
2024-02-22T22:18:28.175Z,8.70
2024-02-22T22:21:25.015Z,8.70
2024-02-22T22:24:16.340Z,8.70
2024-02-22T22:27:03.878Z,8.70
2024-02-22T22:29:51.581Z,8.70
2024-02-22T22:32:39.159Z,8.80
2024-02-22T22:35:26.801Z,8.80
2024-02-22T22:38:14.743Z,8.80
2024-02-22T22:41:02.540Z,8.80
2024-02-22T22:43:50.125Z,8.80
2024-02-22T22:46:37.676Z,8.80
2024-02-22T22:49:25.495Z,8.80
2024-02-22T22:52:13.378Z,8.80
2024-02-22T22:55:01.034Z,8.90
2024-02-22T22:57:48.483Z,8.80
2024-02-22T23:00:36.904Z,8.80
2024-02-22T23:03:27.916Z,8.80
2024-02-22T23:06:19.172Z,8.80
2024-02-22T23:09:06.513Z,8.80
2024-02-22T23:11:54.683Z,8.80
2024-02-22T23:14:42.120Z,8.80
2024-02-22T23:17:29.635Z,8.80
2024-02-22T23:20:17.197Z,8.80
2024-02-22T23:23:05.262Z,8.80
2024-02-22T23:25:53.248Z,8.80
2024-02-22T23:28:41.247Z,8.90
2024-02-22T23:31:31.958Z,8.90
2024-02-22T23:34:19.344Z,8.80
2024-02-22T23:37:07.152Z,8.70
2024-02-22T23:39:55.753Z,8.80
2024-02-22T23:42:43.026Z,8.80
2024-02-22T23:45:30.608Z,8.70
2024-02-22T23:48:18.187Z,8.80
2024-02-22T23:51:06.006Z,8.80
2024-02-22T23:53:54.216Z,8.80
2024-02-22T23:56:45.301Z,8.80
2024-02-22T23:59:32.894Z,8.70
